createdAt,value
2022-08-07T00:00:59.901Z,16.40
2022-08-07T00:04:15.426Z,16.40
2022-08-07T00:07:18.776Z,16.30
2022-08-07T00:10:25.943Z,16.30
2022-08-07T00:13:29.350Z,16.30
2022-08-07T00:16:31.315Z,16.20
2022-08-07T00:20:01.649Z,16.20
2022-08-07T00:22:55.018Z,16.10
2022-08-07T00:26:00.445Z,16.10
2022-08-07T00:29:04.646Z,16.10
2022-08-07T00:32:07.903Z,16.00
2022-08-07T00:35:09.920Z,16.10
2022-08-07T00:38:11.605Z,16.10
2022-08-07T00:41:15.294Z,16.00
2022-08-07T00:44:17.151Z,15.90
2022-08-07T00:48:07.839Z,15.90
2022-08-07T00:50:50.397Z,15.90
2022-08-07T00:53:55.265Z,15.80
2022-08-07T00:56:57.902Z,15.80
2022-08-07T00:59:59.730Z,15.80
2022-08-07T01:03:01.388Z,15.70
2022-08-07T01:06:03.429Z,15.80
2022-08-07T01:09:05.147Z,15.70
2022-08-07T01:12:29.082Z,15.60
2022-08-07T01:16:00.563Z,15.60
2022-08-07T01:18:56.137Z,15.60
2022-08-07T01:21:59.140Z,15.70
2022-08-07T01:25:05.126Z,15.60
2022-08-07T01:28:24.200Z,15.50
2022-08-07T01:31:42.589Z,15.50
2022-08-07T01:34:49.144Z,15.40
2022-08-07T01:37:51.548Z,15.30
2022-08-07T01:40:57.812Z,15.30
2022-08-07T01:43:59.532Z,15.30
2022-08-07T01:48:16.915Z,15.30
2022-08-07T01:50:29.178Z,15.20
2022-08-07T01:54:08.924Z,15.20
2022-08-07T01:57:24.450Z,15.20
2022-08-07T02:00:29.284Z,15.10
2022-08-07T02:03:42.746Z,15.10
2022-08-07T02:06:56.145Z,15.10
2022-08-07T02:09:59.418Z,15.00
2022-08-07T02:13:04.449Z,14.90
2022-08-07T02:16:11.891Z,14.90
2022-08-07T02:20:05.586Z,14.90
2022-08-07T02:22:41.221Z,14.90
2022-08-07T02:26:26.623Z,14.80
2022-08-07T02:29:13.544Z,14.70
2022-08-07T02:32:16.652Z,14.70
2022-08-07T02:36:29.723Z,14.70
2022-08-07T02:38:50.856Z,14.60
2022-08-07T02:41:58.763Z,14.60
2022-08-07T02:45:07.320Z,14.50
2022-08-07T02:48:26.281Z,14.50
2022-08-07T02:51:42.563Z,14.50
2022-08-07T02:54:53.652Z,14.40
2022-08-07T02:58:04.044Z,14.40
2022-08-07T03:01:06.401Z,14.40
2022-08-07T03:04:19.025Z,14.40
2022-08-07T03:07:21.541Z,14.30
2022-08-07T03:10:46.674Z,14.30
2022-08-07T03:13:50.222Z,14.30
2022-08-07T03:16:59.891Z,14.30
2022-08-07T03:20:07.494Z,14.30
2022-08-07T03:23:19.187Z,14.30
2022-08-07T03:26:24.647Z,14.30
2022-08-07T03:29:49.617Z,14.20
2022-08-07T03:32:58.249Z,14.20
2022-08-07T03:36:00.509Z,14.20
2022-08-07T03:39:13.897Z,14.20
2022-08-07T03:42:19.975Z,14.10
2022-08-07T03:45:30.599Z,14.10
2022-08-07T03:48:35.124Z,14.10
2022-08-07T03:52:01.091Z,14.10
2022-08-07T03:55:07.018Z,14.00
2022-08-07T03:59:06.866Z,14.00
2022-08-07T04:01:33.924Z,13.90
2022-08-07T04:04:41.658Z,13.90
2022-08-07T04:07:48.457Z,13.90
2022-08-07T04:10:53.912Z,13.80
2022-08-07T04:14:10.607Z,13.90
2022-08-07T04:17:23.841Z,13.90
2022-08-07T04:20:54.631Z,13.90
2022-08-07T04:24:03.506Z,13.80
2022-08-07T04:27:20.341Z,13.90
2022-08-07T04:30:39.249Z,13.90
2022-08-07T04:33:46.025Z,14.00
2022-08-07T04:36:48.781Z,14.00
2022-08-07T04:39:51.243Z,14.20
2022-08-07T04:42:53.450Z,14.30
2022-08-07T04:46:25.842Z,14.50
2022-08-07T04:49:57.416Z,14.70
2022-08-07T04:53:07.923Z,14.80
2022-08-07T04:58:16.095Z,15.00
2022-08-07T05:00:18.886Z,15.10
2022-08-07T05:04:00.152Z,15.20
2022-08-07T05:07:09.510Z,15.40
2022-08-07T05:10:45.321Z,15.60
2022-08-07T05:14:53.040Z,15.70
2022-08-07T05:17:52.577Z,15.80
2022-08-07T05:20:49.383Z,15.80
2022-08-07T05:24:05.870Z,15.70
2022-08-07T05:27:14.525Z,16.00
2022-08-07T05:30:34.140Z,16.10
2022-08-07T05:33:40.986Z,16.10
2022-08-07T05:37:05.731Z,16.10
2022-08-07T05:40:18.889Z,16.20
2022-08-07T05:43:49.867Z,16.30
2022-08-07T05:46:44.127Z,16.50
2022-08-07T05:49:49.488Z,16.50
2022-08-07T05:52:51.542Z,16.60
2022-08-07T05:56:02.962Z,16.70
2022-08-07T05:59:09.988Z,16.80
2022-08-07T06:02:20.103Z,16.90
2022-08-07T06:05:31.335Z,17.10
2022-08-07T06:08:36.911Z,17.20
2022-08-07T06:11:44.248Z,17.40
2022-08-07T06:14:49.310Z,17.40
2022-08-07T06:17:55.031Z,17.50
2022-08-07T06:22:11.539Z,17.70
2022-08-07T06:24:37.657Z,17.80
2022-08-07T06:27:59.798Z,18.00
2022-08-07T06:31:03.790Z,18.00
2022-08-07T06:34:07.371Z,18.20
2022-08-07T06:37:11.274Z,18.40
2022-08-07T06:40:21.308Z,18.60
2022-08-07T06:43:26.772Z,18.50
2022-08-07T06:46:35.437Z,18.70
2022-08-07T06:49:50.668Z,18.70
2022-08-07T06:52:57.105Z,18.70
2022-08-07T06:56:01.106Z,18.70
2022-08-07T07:00:14.269Z,18.80
2022-08-07T07:02:48.524Z,19.00
2022-08-07T07:06:05.475Z,19.20
2022-08-07T07:09:25.293Z,19.50
2022-08-07T07:12:54.247Z,19.70
2022-08-07T07:16:03.003Z,19.80
2022-08-07T07:19:54.775Z,19.90
2022-08-07T07:22:33.900Z,20.10
2022-08-07T07:26:33.290Z,20.20
2022-08-07T07:29:38.560Z,20.20
2022-08-07T07:32:38.829Z,20.30
2022-08-07T07:36:04.141Z,20.40
2022-08-07T07:39:09.460Z,20.50
2022-08-07T07:42:13.988Z,20.50
2022-08-07T07:46:35.555Z,20.70
2022-08-07T07:48:48.193Z,20.80
2022-08-07T07:51:58.010Z,20.90
2022-08-07T07:55:03.384Z,21.00
2022-08-07T07:58:05.831Z,21.10
2022-08-07T08:02:03.022Z,21.30
2022-08-07T08:04:33.480Z,21.50
2022-08-07T08:07:42.505Z,21.50
2022-08-07T08:11:04.509Z,21.60
2022-08-07T08:14:06.619Z,21.70
2022-08-07T08:18:36.531Z,21.90
2022-08-07T08:20:36.572Z,21.80
2022-08-07T08:23:56.996Z,21.80
2022-08-07T08:27:09.366Z,21.90
2022-08-07T08:30:14.405Z,22.00
2022-08-07T08:33:24.229Z,22.30
2022-08-07T08:36:32.752Z,22.40
2022-08-07T08:39:39.679Z,22.40
2022-08-07T08:43:19.860Z,22.50
2022-08-07T08:46:45.062Z,22.60
2022-08-07T08:50:04.726Z,22.70
2022-08-07T08:53:29.433Z,22.70
2022-08-07T08:56:36.729Z,22.70
2022-08-07T08:59:57.250Z,22.80
2022-08-07T09:03:03.830Z,22.80
2022-08-07T09:06:17.954Z,23.10
2022-08-07T09:09:43.581Z,23.10
2022-08-07T09:13:03.407Z,23.20
2022-08-07T09:16:35.874Z,23.10
2022-08-07T09:19:55.412Z,23.30
2022-08-07T09:24:33.579Z,23.50
2022-08-07T09:27:11.981Z,23.50
2022-08-07T09:30:15.439Z,23.70
2022-08-07T09:34:15.003Z,23.60
2022-08-07T09:37:53.771Z,23.70
2022-08-07T09:41:14.628Z,24.00
2022-08-07T09:45:03.507Z,24.00
2022-08-07T09:48:30.184Z,24.00
2022-08-07T09:52:16.044Z,24.10
2022-08-07T09:56:04.181Z,24.20
2022-08-07T09:59:44.319Z,24.40
2022-08-07T10:04:06.373Z,24.40
2022-08-07T10:07:25.620Z,24.70
2022-08-07T10:11:16.931Z,24.60
2022-08-07T10:14:30.389Z,24.70
2022-08-07T10:18:10.719Z,24.80
2022-08-07T10:22:12.516Z,24.70
2022-08-07T10:24:56.232Z,24.60
2022-08-07T10:28:14.507Z,24.80
2022-08-07T10:31:38.781Z,25.20
2022-08-07T10:35:09.143Z,25.20
2022-08-07T10:38:47.887Z,25.40
2022-08-07T10:42:09.868Z,25.50
2022-08-07T10:45:44.888Z,25.60
2022-08-07T10:49:03.107Z,25.70
2022-08-07T10:52:14.778Z,25.60
2022-08-07T10:55:38.525Z,25.80
2022-08-07T10:59:21.288Z,25.70
2022-08-07T11:02:34.960Z,25.60
2022-08-07T11:05:50.858Z,25.60
2022-08-07T11:09:04.290Z,25.70
2022-08-07T11:12:32.045Z,25.90
2022-08-07T11:15:39.725Z,25.90
2022-08-07T11:19:21.789Z,26.00
2022-08-07T11:23:02.648Z,26.20
2022-08-07T11:26:14.039Z,26.20
2022-08-07T11:30:18.515Z,26.20
2022-08-07T11:33:59.634Z,26.20
2022-08-07T11:37:11.626Z,26.20
2022-08-07T11:40:22.685Z,26.30
2022-08-07T11:43:54.360Z,26.50
2022-08-07T11:47:38.676Z,26.50
2022-08-07T11:51:09.679Z,26.50
2022-08-07T11:54:41.915Z,26.60
2022-08-07T11:58:01.899Z,26.80
2022-08-07T12:01:25.786Z,27.00
2022-08-07T12:05:28.941Z,27.10
2022-08-07T12:09:09.180Z,27.10
2022-08-07T12:12:36.993Z,27.00
2022-08-07T12:16:05.663Z,27.00
2022-08-07T12:19:22.005Z,27.10
2022-08-07T12:22:55.920Z,27.40
2022-08-07T12:26:22.811Z,27.60
2022-08-07T12:29:38.317Z,27.70
2022-08-07T12:33:01.921Z,27.90
2022-08-07T12:36:33.619Z,28.00
2022-08-07T12:39:43.733Z,27.60
2022-08-07T12:42:55.126Z,27.40
2022-08-07T12:46:16.052Z,27.30
2022-08-07T12:49:52.924Z,27.20
2022-08-07T12:53:17.849Z,27.40
2022-08-07T12:56:30.949Z,27.50
2022-08-07T12:59:54.868Z,27.80
2022-08-07T13:03:01.291Z,27.80
2022-08-07T13:06:27.254Z,27.80
2022-08-07T13:10:21.532Z,27.90
2022-08-07T13:13:48.409Z,27.80
2022-08-07T13:17:04.696Z,27.90
2022-08-07T13:20:15.197Z,27.80
2022-08-07T13:24:01.797Z,27.80
2022-08-07T13:27:11.000Z,27.70
2022-08-07T13:30:19.379Z,27.60
2022-08-07T13:34:31.779Z,27.70
2022-08-07T13:37:33.448Z,27.90
2022-08-07T13:40:47.273Z,28.30
2022-08-07T13:43:56.088Z,28.50
2022-08-07T13:47:00.979Z,28.50
2022-08-07T13:50:34.720Z,28.50
2022-08-07T13:53:59.390Z,28.30
2022-08-07T13:56:59.843Z,28.00
2022-08-07T14:00:04.050Z,28.10
2022-08-07T14:03:06.460Z,28.10
2022-08-07T14:06:10.275Z,28.30
2022-08-07T14:10:12.386Z,28.30
2022-08-07T14:12:55.669Z,28.00
2022-08-07T14:16:06.348Z,28.10
2022-08-07T14:20:42.516Z,28.10
2022-08-07T14:23:05.823Z,28.30
2022-08-07T14:26:30.130Z,28.40
2022-08-07T14:30:06.432Z,28.30
2022-08-07T14:33:07.227Z,28.60
2022-08-07T14:36:10.543Z,28.70
2022-08-07T14:40:18.105Z,28.50
2022-08-07T14:43:01.218Z,28.40
2022-08-07T14:46:04.342Z,28.40
2022-08-07T14:52:33.925Z,28.40
2022-08-07T14:55:55.672Z,28.30
2022-08-07T14:59:14.041Z,28.50
2022-08-07T15:05:54.341Z,28.50
2022-08-07T15:12:36.794Z,28.40
2022-08-07T15:15:52.518Z,28.60
2022-08-07T15:19:00.628Z,28.70
2022-08-07T15:22:05.745Z,28.90
2022-08-07T15:25:36.436Z,28.50
2022-08-07T15:32:07.578Z,28.60
2022-08-07T15:36:00.295Z,28.60
2022-08-07T15:38:51.268Z,28.80
2022-08-07T15:42:46.181Z,28.80
2022-08-07T15:45:24.940Z,29.00
2022-08-07T15:49:04.043Z,29.30
2022-08-07T15:52:13.897Z,29.40
2022-08-07T15:55:19.925Z,29.70
2022-08-07T15:58:52.100Z,29.70
2022-08-07T16:02:01.765Z,29.40
2022-08-07T16:05:15.459Z,29.20
2022-08-07T16:08:30.668Z,29.20
2022-08-07T16:12:04.718Z,29.30
2022-08-07T16:15:55.209Z,29.70
2022-08-07T16:19:41.928Z,30.00
2022-08-07T16:23:53.143Z,30.00
2022-08-07T16:26:58.780Z,29.70
2022-08-07T16:30:29.436Z,30.10
2022-08-07T16:34:02.196Z,30.10
2022-08-07T16:38:04.633Z,30.20
2022-08-07T16:41:22.356Z,29.90
2022-08-07T16:44:57.253Z,29.50
2022-08-07T16:48:58.384Z,29.50
2022-08-07T16:52:51.371Z,30.10
2022-08-07T16:55:50.340Z,30.40
2022-08-07T16:59:46.675Z,30.40
2022-08-07T17:03:17.202Z,30.40
2022-08-07T17:07:02.981Z,30.10
2022-08-07T17:10:33.284Z,30.20
2022-08-07T17:14:17.802Z,30.50
2022-08-07T17:17:47.512Z,30.40
2022-08-07T17:20:53.973Z,30.40
2022-08-07T17:24:33.447Z,30.40
2022-08-07T17:27:51.130Z,29.90
2022-08-07T17:31:16.167Z,29.80
2022-08-07T17:35:32.922Z,29.70
2022-08-07T17:38:33.621Z,29.80
2022-08-07T17:42:02.700Z,30.10
2022-08-07T17:45:25.185Z,30.30
2022-08-07T17:48:34.205Z,30.40
2022-08-07T17:52:00.005Z,30.30
2022-08-07T17:56:00.224Z,30.30
2022-08-07T17:58:50.245Z,30.10
2022-08-07T18:02:01.230Z,30.00
2022-08-07T18:05:21.256Z,29.70
2022-08-07T18:09:01.490Z,29.40
2022-08-07T18:12:28.463Z,29.00
2022-08-07T18:15:43.099Z,28.30
2022-08-07T18:21:11.510Z,27.50
2022-08-07T18:22:40.100Z,27.00
2022-08-07T18:25:48.161Z,26.60
2022-08-07T18:30:06.641Z,26.40
2022-08-07T18:32:54.976Z,26.10
2022-08-07T18:36:39.677Z,25.90
2022-08-07T18:40:38.838Z,25.70
2022-08-07T18:43:57.719Z,25.50
2022-08-07T18:47:26.025Z,25.30
2022-08-07T18:52:33.710Z,25.20
2022-08-07T18:58:52.052Z,24.80
2022-08-07T19:02:42.414Z,24.60
2022-08-07T19:06:03.251Z,24.30
2022-08-07T19:09:55.857Z,24.10
2022-08-07T19:13:21.830Z,24.00
2022-08-07T19:17:04.423Z,23.80
2022-08-07T19:20:28.785Z,23.60
2022-08-07T19:23:57.918Z,23.50
2022-08-07T19:28:56.737Z,23.40
2022-08-07T19:31:04.084Z,23.20
2022-08-07T19:33:58.389Z,23.10
2022-08-07T19:37:10.027Z,23.10
2022-08-07T19:40:31.754Z,23.00
2022-08-07T19:43:51.924Z,22.80
2022-08-07T19:47:08.591Z,22.70
2022-08-07T19:50:44.117Z,22.60
2022-08-07T19:54:33.549Z,22.50
2022-08-07T19:58:02.037Z,22.40
2022-08-07T20:00:28.144Z,22.30
2022-08-07T20:03:35.487Z,22.20
2022-08-07T20:06:43.006Z,22.10
2022-08-07T20:10:35.616Z,22.10
2022-08-07T20:13:23.890Z,22.00
2022-08-07T20:16:36.406Z,22.00
2022-08-07T20:19:48.149Z,21.80
2022-08-07T20:23:22.853Z,21.80
2022-08-07T20:26:38.577Z,21.70
2022-08-07T20:29:59.379Z,21.70
2022-08-07T20:33:05.395Z,21.60
2022-08-07T20:36:13.266Z,21.50
2022-08-07T20:40:01.362Z,21.40
2022-08-07T20:42:56.095Z,21.40
2022-08-07T20:46:28.565Z,21.30
2022-08-07T20:50:00.114Z,21.20
2022-08-07T20:52:51.395Z,21.20
2022-08-07T20:55:57.591Z,21.20
2022-08-07T20:59:06.093Z,21.20
2022-08-07T21:02:53.983Z,21.10
2022-08-07T21:06:21.452Z,21.10
2022-08-07T21:09:51.520Z,21.10
2022-08-07T21:12:58.629Z,21.00
2022-08-07T21:16:07.493Z,21.00
2022-08-07T21:19:13.989Z,20.90
2022-08-07T21:22:19.289Z,20.80
2022-08-07T21:25:38.781Z,20.80
2022-08-07T21:28:51.760Z,20.70
2022-08-07T21:32:47.265Z,20.60
2022-08-07T21:36:04.010Z,20.60
2022-08-07T21:39:47.529Z,20.50
2022-08-07T21:43:04.467Z,20.40
2022-08-07T21:46:25.211Z,20.30
2022-08-07T21:50:02.694Z,20.30
2022-08-07T21:53:26.952Z,20.30
2022-08-07T21:56:50.631Z,20.20
2022-08-07T22:00:06.234Z,20.20
2022-08-07T22:03:30.632Z,20.10
2022-08-07T22:06:45.171Z,20.10
2022-08-07T22:09:54.206Z,20.00
2022-08-07T22:13:03.197Z,19.90
2022-08-07T22:16:44.519Z,19.90
2022-08-07T22:20:23.300Z,19.80
2022-08-07T22:23:44.947Z,19.80
2022-08-07T22:26:56.319Z,19.70
2022-08-07T22:30:12.354Z,19.70
2022-08-07T22:33:15.106Z,19.80
2022-08-07T22:36:29.197Z,19.70
2022-08-07T22:39:52.672Z,19.60
2022-08-07T22:43:07.334Z,19.60
2022-08-07T22:47:04.440Z,19.50
2022-08-07T22:50:33.318Z,19.50
2022-08-07T22:54:09.367Z,19.40
2022-08-07T22:57:40.912Z,19.40
2022-08-07T23:01:07.002Z,19.30
2022-08-07T23:04:20.676Z,19.30
2022-08-07T23:07:51.604Z,19.20
2022-08-07T23:11:21.343Z,19.10
2022-08-07T23:14:37.792Z,19.10
2022-08-07T23:17:56.214Z,19.00
2022-08-07T23:21:16.458Z,19.00
2022-08-07T23:24:28.919Z,18.90
2022-08-07T23:28:22.686Z,18.80
2022-08-07T23:34:20.124Z,18.80
2022-08-07T23:35:16.731Z,18.80
2022-08-07T23:38:36.799Z,18.70
2022-08-07T23:42:21.560Z,18.60
2022-08-07T23:46:01.973Z,18.60
2022-08-07T23:49:15.355Z,18.50
2022-08-07T23:52:58.835Z,18.40
2022-08-07T23:56:27.039Z,18.40
